Time;durP1;ratioP1;P1;durP2;ratioP2;P2;SDS_P1;SDS_P2;PMS_P1;PMS_P2;Temp;Humidity;BMP_temperature;BMP_pressure;BME280_temperature;BME280_humidity;BME280_pressure;Samples;Min_cycle;Max_cycle;Signal;HPM_P1;HPM_P2
2021/09/21 00:01:07;;;;;;;1.75;1.23;;;7.60;99.90;;;;;;5029452;28;20040;-68
2021/09/21 00:03:33;;;;;;;1.65;1.50;;;7.60;99.90;;;;;;5029148;28;20033;-68
2021/09/21 00:06:05;;;;;;;2.00;1.80;;;7.70;99.90;;;;;;5029502;28;20040;-68
2021/09/21 00:08:32;;;;;;;1.50;1.20;;;7.70;99.90;;;;;;5029607;28;20033;-68
2021/09/21 00:10:59;;;;;;;4.25;1.35;;;7.60;99.90;;;;;;5029564;28;20029;-68
2021/09/21 00:13:27;;;;;;;4.95;1.50;;;7.60;99.90;;;;;;5029382;28;20028;-68
2021/09/21 00:15:53;;;;;;;1.98;1.33;;;7.60;99.90;;;;;;5029393;28;20166;-68
2021/09/21 00:18:19;;;;;;;3.40;1.40;;;7.60;99.90;;;;;;5029110;28;20032;-67
2021/09/21 00:20:44;;;;;;;2.83;1.50;;;7.60;99.90;;;;;;5029299;28;20022;-68
2021/09/21 00:23:10;;;;;;;3.20;1.60;;;7.50;99.90;;;;;;5029031;28;20072;-67
2021/09/21 00:25:36;;;;;;;1.58;1.48;;;7.50;99.90;;;;;;5029148;28;20023;-68
2021/09/21 00:28:03;;;;;;;3.65;1.40;;;7.50;99.90;;;;;;5029024;28;20034;-68
2021/09/21 00:30:29;;;;;;;1.40;1.30;;;7.40;99.90;;;;;;5029506;28;20025;-68
2021/09/21 00:33:05;;;;;;;2.13;1.45;;;7.40;99.90;;;;;;5029082;28;20029;-68
2021/09/21 00:35:33;;;;;;;1.40;1.30;;;7.50;99.90;;;;;;5029206;28;20074;-69
2021/09/21 00:38:00;;;;;;;1.40;1.20;;;7.50;99.90;;;;;;5029014;28;20029;-69
2021/09/21 00:40:27;;;;;;;2.50;1.38;;;7.50;99.90;;;;;;5028965;28;20026;-69
2021/09/21 00:42:53;;;;;;;2.42;1.70;;;7.50;99.90;;;;;;5029068;28;20072;-69
2021/09/21 00:45:23;;;;;;;2.20;1.45;;;7.40;99.90;;;;;;5028780;28;20049;-69
2021/09/21 00:47:50;;;;;;;1.65;1.55;;;7.40;99.90;;;;;;5028934;28;20388;-69
2021/09/21 00:50:17;;;;;;;4.47;1.67;;;7.30;99.90;;;;;;5028796;28;20032;-69
2021/09/21 00:52:43;;;;;;;1.92;1.40;;;7.30;99.90;;;;;;5028819;28;20021;-69
2021/09/21 00:55:09;;;;;;;1.70;1.40;;;7.30;99.90;;;;;;5028597;28;20046;-69
2021/09/21 00:57:36;;;;;;;1.70;1.60;;;7.30;99.90;;;;;;5027619;28;20489;-69
2021/09/21 01:00:05;;;;;;;1.77;1.30;;;7.30;99.90;;;;;;5028824;28;20029;-69
2021/09/21 01:02:31;;;;;;;3.95;1.48;;;7.30;99.90;;;;;;5028680;28;20123;-69
2021/09/21 01:04:56;;;;;;;1.85;1.42;;;7.20;99.90;;;;;;5028857;28;20060;-69
2021/09/21 01:07:22;;;;;;;1.60;1.50;;;7.30;99.90;;;;;;5028836;28;20017;-68
2021/09/21 01:09:48;;;;;;;3.15;1.65;;;7.30;99.90;;;;;;5028939;28;20493;-68
2021/09/21 01:12:14;;;;;;;1.60;1.50;;;7.30;99.90;;;;;;5028539;28;20029;-68
2021/09/21 01:14:39;;;;;;;4.18;2.30;;;7.30;99.90;;;;;;5028866;28;20026;-68
2021/09/21 01:17:05;;;;;;;6.93;1.67;;;7.30;99.90;;;;;;5031702;28;20469;-68
2021/09/21 01:19:31;;;;;;;2.40;1.75;;;7.40;99.90;;;;;;5032031;28;20057;-68
2021/09/21 01:21:57;;;;;;;1.70;1.60;;;7.30;99.90;;;;;;5031901;28;20022;-69
2021/09/21 01:24:23;;;;;;;1.60;1.50;;;7.30;99.90;;;;;;5031784;28;20038;-68
2021/09/21 01:26:49;;;;;;;3.63;1.50;;;7.30;99.90;;;;;;5031815;28;20026;-69
2021/09/21 01:29:15;;;;;;;2.25;1.58;;;7.30;99.90;;;;;;5031856;28;20025;-68
2021/09/21 01:31:42;;;;;;;1.70;1.58;;;7.30;99.90;;;;;;5031800;28;20033;-68
2021/09/21 01:34:08;;;;;;;1.63;1.50;;;7.30;99.90;;;;;;5031665;28;20076;-68
2021/09/21 01:36:34;;;;;;;4.65;1.73;;;7.40;99.90;;;;;;5031803;28;20473;-68
2021/09/21 01:39:00;;;;;;;2.47;1.88;;;7.40;99.90;;;;;;5031794;28;20037;-68
2021/09/21 01:41:26;;;;;;;1.55;1.45;;;7.40;99.90;;;;;;5031719;28;20021;-68
2021/09/21 01:43:54;;;;;;;7.10;1.80;;;7.30;99.90;;;;;;5031615;28;20132;-68
2021/09/21 01:46:22;;;;;;;2.28;1.48;;;7.30;99.90;;;;;;5031786;28;20158;-68
2021/09/21 01:48:49;;;;;;;5.00;2.00;;;7.20;99.90;;;;;;5031728;28;20021;-68
2021/09/21 01:51:29;;;;;;;2.33;1.70;;;7.20;99.90;;;;;;5031474;28;20610;-68
2021/09/21 01:54:15;;;;;;;5.57;1.48;;;7.20;99.90;;;;;;5031673;28;20025;-69
2021/09/21 01:59:26;;;;;;;2.25;1.50;;;7.20;99.90;;;;;;5031361;28;20029;-68
2021/09/21 02:01:51;;;;;;;2.17;1.60;;;7.20;99.90;;;;;;5031310;28;20086;-68
2021/09/21 02:04:17;;;;;;;2.05;1.67;;;7.30;99.90;;;;;;5031124;28;20041;-69
2021/09/21 02:06:43;;;;;;;2.35;2.00;;;7.20;99.90;;;;;;5031273;28;20047;-69
2021/09/21 02:09:12;;;;;;;1.90;1.65;;;7.30;99.90;;;;;;5031149;28;20022;-69
2021/09/21 02:11:39;;;;;;;2.00;1.80;;;7.30;99.90;;;;;;5031122;28;20025;-69
2021/09/21 02:14:08;;;;;;;3.75;1.45;;;7.30;99.90;;;;;;5031223;28;20078;-69
2021/09/21 02:16:34;;;;;;;2.92;1.27;;;7.20;99.90;;;;;;5031060;28;20026;-68
2021/09/21 02:19:00;;;;;;;2.17;1.90;;;7.20;99.90;;;;;;5031076;28;20025;-68
2021/09/21 02:21:27;;;;;;;2.67;2.13;;;7.20;99.90;;;;;;5030938;28;20495;-68
2021/09/21 02:23:54;;;;;;;9.25;1.95;;;7.20;99.90;;;;;;5031223;28;20046;-69
2021/09/21 02:55:24;;;;;;;5.30;1.77;;;7.00;99.90;;;;;;5030126;28;20416;-69
2021/09/21 02:57:50;;;;;;;4.25;2.20;;;7.10;99.90;;;;;;5030390;28;20030;-69
2021/09/21 03:00:21;;;;;;;4.35;1.80;;;7.10;99.90;;;;;;5030535;28;20040;-69
2021/09/21 03:02:47;;;;;;;2.72;1.90;;;7.10;99.90;;;;;;5030260;28;20038;-69
2021/09/21 03:05:18;;;;;;;5.28;2.00;;;7.20;99.90;;;;;;5030786;28;20060;-68
2021/09/21 03:07:47;;;;;;;5.22;2.10;;;7.20;99.90;;;;;;5030338;28;20033;-68
2021/09/21 03:18:24;;;;;;;4.55;2.30;;;7.20;99.90;;;;;;5030422;28;20082;-68
2021/09/21 03:20:50;;;;;;;4.82;2.38;;;7.20;99.90;;;;;;5030041;28;20029;-68
2021/09/21 03:23:15;;;;;;;3.85;2.72;;;7.30;99.90;;;;;;5029973;28;20082;-68
2021/09/21 03:25:41;;;;;;;3.30;2.42;;;7.20;99.90;;;;;;5029807;28;20209;-69
2021/09/21 03:28:07;;;;;;;3.50;2.50;;;7.30;99.90;;;;;;5029973;28;20108;-68
2021/09/21 03:30:34;;;;;;;3.58;2.25;;;7.20;99.90;;;;;;5030046;28;20022;-68
2021/09/21 03:32:59;;;;;;;3.42;2.50;;;7.20;99.90;;;;;;5029797;28;20366;-68
2021/09/21 03:35:25;;;;;;;8.38;2.17;;;7.30;99.90;;;;;;5029901;28;20032;-68
2021/09/21 03:37:51;;;;;;;5.18;2.15;;;7.30;99.90;;;;;;5029016;28;20028;-68
2021/09/21 03:40:17;;;;;;;9.13;2.53;;;7.30;99.90;;;;;;5030177;28;20062;-68
2021/09/21 03:42:43;;;;;;;4.18;2.50;;;7.30;99.90;;;;;;5029525;28;20068;-68
2021/09/21 03:45:09;;;;;;;5.63;2.40;;;7.30;99.90;;;;;;5029749;28;20111;-68
2021/09/21 03:47:35;;;;;;;3.85;2.53;;;7.20;99.90;;;;;;5029681;28;20519;-68
2021/09/21 03:50:01;;;;;;;2.22;1.83;;;7.20;99.90;;;;;;5029859;28;20061;-69
2021/09/21 03:52:26;;;;;;;2.53;2.00;;;7.20;99.90;;;;;;5029637;28;20044;-68
2021/09/21 03:54:52;;;;;;;2.65;2.33;;;7.20;99.90;;;;;;5029407;28;20053;-68
2021/09/21 03:57:18;;;;;;;4.03;2.10;;;7.20;99.90;;;;;;5029589;28;20030;-68
2021/09/21 03:59:43;;;;;;;3.92;2.00;;;7.20;99.90;;;;;;5029559;28;20511;-68
2021/09/21 04:02:09;;;;;;;9.15;2.58;;;7.20;99.90;;;;;;5029513;28;20048;-68
2021/09/21 04:04:35;;;;;;;6.80;2.75;;;7.20;99.90;;;;;;5029401;28;20044;-68
2021/09/21 04:07:00;;;;;;;5.18;2.03;;;7.20;99.90;;;;;;5029297;28;20026;-68
2021/09/21 04:09:26;;;;;;;3.75;2.55;;;7.20;99.90;;;;;;5029447;28;20531;-68
2021/09/21 04:11:52;;;;;;;4.50;2.65;;;7.30;99.90;;;;;;5029200;28;20044;-69
2021/09/21 04:14:18;;;;;;;3.10;2.42;;;7.20;99.90;;;;;;5029460;28;20105;-68
2021/09/21 04:16:46;;;;;;;14.25;2.60;;;7.20;99.90;;;;;;5029152;28;20061;-69
2021/09/21 04:19:12;;;;;;;2.40;2.08;;;7.20;99.90;;;;;;5029272;28;20513;-68
2021/09/21 04:21:37;;;;;;;2.78;2.47;;;7.10;99.90;;;;;;5029549;28;20065;-68
2021/09/21 04:24:04;;;;;;;11.98;2.22;;;7.10;99.90;;;;;;5027621;28;20038;-68
2021/09/21 04:26:30;;;;;;;5.53;2.63;;;7.10;99.90;;;;;;5029180;28;20045;-68
2021/09/21 04:28:55;;;;;;;7.25;4.10;;;7.10;99.90;;;;;;5029054;28;20455;-68
2021/09/21 04:31:24;;;;;;;5.78;3.00;;;7.10;99.90;;;;;;5029400;28;20025;-68
2021/09/21 04:33:51;;;;;;;5.05;2.67;;;7.10;99.90;;;;;;5028895;28;20026;-68
2021/09/21 04:36:18;;;;;;;2.83;2.53;;;7.10;99.90;;;;;;5029256;28;20485;-67
2021/09/21 04:38:44;;;;;;;3.83;2.50;;;7.10;99.90;;;;;;5028966;28;20030;-66
2021/09/21 04:41:10;;;;;;;5.30;2.60;;;7.00;99.90;;;;;;5028861;28;20366;-67
2021/09/21 04:43:37;;;;;;;4.97;2.72;;;7.00;99.90;;;;;;5028976;28;20034;-66
2021/09/21 04:46:05;;;;;;;4.13;2.72;;;7.10;99.90;;;;;;5028723;28;20141;-66
2021/09/21 04:48:31;;;;;;;3.55;2.50;;;7.10;99.90;;;;;;5028877;28;20082;-66
2021/09/21 04:50:57;;;;;;;8.02;2.95;;;7.00;99.90;;;;;;5030379;28;20070;-65
2021/09/21 04:53:22;;;;;;;5.95;3.00;;;7.00;99.90;;;;;;5032582;28;20116;-66
2021/09/21 04:55:49;;;;;;;5.03;2.83;;;7.00;99.90;;;;;;5032170;28;20401;-67
2021/09/21 04:58:14;;;;;;;7.20;2.72;;;7.00;99.90;;;;;;5032516;28;20104;-66
2021/09/21 05:00:40;;;;;;;6.18;2.80;;;7.00;99.90;;;;;;5032396;28;20695;-67
2021/09/21 05:03:06;;;;;;;6.30;2.67;;;7.00;99.90;;;;;;5031961;28;20030;-66
2021/09/21 05:05:32;;;;;;;4.47;3.00;;;7.10;99.90;;;;;;5032074;28;20045;-66
2021/09/21 05:07:59;;;;;;;6.72;3.08;;;7.20;99.90;;;;;;5031911;28;20030;-66
2021/09/21 05:10:26;;;;;;;6.32;3.25;;;7.40;99.90;;;;;;5032370;28;20037;-66
2021/09/21 05:12:51;;;;;;;4.80;3.08;;;7.50;99.90;;;;;;5032721;28;20018;-66
2021/09/21 05:15:17;;;;;;;14.50;4.63;;;7.60;99.90;;;;;;5031985;28;20710;-66
2021/09/21 05:17:43;;;;;;;24.35;5.15;;;7.60;99.90;;;;;;5031885;28;20028;-65
2021/09/21 05:20:09;;;;;;;10.52;4.32;;;7.70;99.90;;;;;;5031903;28;20032;-65
2021/09/21 05:22:35;;;;;;;18.10;3.60;;;7.70;99.90;;;;;;5031353;28;20014;-65
2021/09/21 05:25:01;;;;;;;5.00;2.70;;;7.80;99.90;;;;;;5032035;28;20102;-64
2021/09/21 05:27:26;;;;;;;9.20;3.22;;;8.20;99.90;;;;;;5031626;28;20022;-64
2021/09/21 05:29:52;;;;;;;8.07;3.35;;;8.60;99.90;;;;;;5031401;28;20033;-64
2021/09/21 05:32:18;;;;;;;7.40;2.97;;;8.60;99.90;;;;;;5031517;28;20014;-65
2021/09/21 05:34:43;;;;;;;11.85;3.95;;;8.40;99.90;;;;;;5031722;28;20044;-66
2021/09/21 05:37:09;;;;;;;15.73;4.50;;;8.30;99.90;;;;;;5031541;28;20033;-66
2021/09/21 05:39:35;;;;;;;7.72;3.63;;;8.20;99.90;;;;;;5031742;28;20036;-66
2021/09/21 05:42:01;;;;;;;23.45;4.03;;;8.10;99.90;;;;;;5031116;28;20021;-66
2021/09/21 05:44:26;;;;;;;8.18;3.60;;;8.10;99.90;;;;;;5031731;28;20037;-65
2021/09/21 05:46:52;;;;;;;10.13;3.95;;;8.10;99.90;;;;;;5031348;28;20499;-66
2021/09/21 05:49:18;;;;;;;4.32;3.25;;;8.10;99.90;;;;;;5031706;28;20032;-66
2021/09/21 05:51:43;;;;;;;7.82;4.13;;;8.10;99.90;;;;;;5031391;28;20533;-66
2021/09/21 05:54:09;;;;;;;13.30;4.90;;;8.00;99.90;;;;;;5030969;28;20162;-66
2021/09/21 05:56:35;;;;;;;6.75;3.50;;;7.90;99.90;;;;;;5031186;28;20042;-66
2021/09/21 05:59:01;;;;;;;7.25;3.15;;;7.90;99.90;;;;;;5031382;28;20496;-66
2021/09/21 06:01:30;;;;;;;5.25;2.78;;;7.90;99.90;;;;;;5031054;28;20025;-65
2021/09/21 06:03:56;;;;;;;7.88;2.83;;;7.90;99.90;;;;;;5030985;28;20042;-66
2021/09/21 06:06:22;;;;;;;7.10;2.65;;;8.00;99.90;;;;;;5031409;28;20021;-66
2021/09/21 06:08:48;;;;;;;8.15;2.60;;;8.10;99.90;;;;;;5031375;28;20033;-66
2021/09/21 06:11:20;;;;;;;12.05;2.40;;;8.10;99.90;;;;;;5031155;28;20049;-67
2021/09/21 06:13:47;;;;;;;11.00;3.25;;;8.00;99.90;;;;;;5031014;28;20384;-65
2021/09/21 06:16:14;;;;;;;6.05;2.80;;;7.90;99.90;;;;;;5030941;28;20064;-66
2021/09/21 06:18:40;;;;;;;6.05;2.60;;;7.80;99.90;;;;;;5031042;28;20091;-65
2021/09/21 06:21:05;;;;;;;4.68;2.72;;;7.80;99.90;;;;;;5030832;28;20119;-66
2021/09/21 06:23:31;;;;;;;11.57;3.00;;;7.70;99.90;;;;;;5029624;28;20048;-66
2021/09/21 06:25:57;;;;;;;5.28;2.60;;;7.70;99.90;;;;;;5030803;28;20018;-66
2021/09/21 06:28:23;;;;;;;5.53;2.63;;;7.70;99.90;;;;;;5030531;28;20036;-66
2021/09/21 06:30:48;;;;;;;6.07;2.75;;;7.70;99.90;;;;;;5030480;28;20381;-65
2021/09/21 06:33:14;;;;;;;9.57;3.00;;;7.60;99.90;;;;;;5030901;28;20389;-65
2021/09/21 06:35:40;;;;;;;9.45;2.80;;;7.60;99.90;;;;;;5030793;28;20040;-65
2021/09/21 06:38:05;;;;;;;4.85;2.67;;;7.60;99.90;;;;;;5030610;28;20099;-65
2021/09/21 06:40:31;;;;;;;10.93;2.65;;;7.70;99.90;;;;;;5030506;28;20025;-65
2021/09/21 06:42:57;;;;;;;9.20;3.38;;;7.70;99.90;;;;;;5030283;28;20114;-65
2021/09/21 06:45:23;;;;;;;10.00;2.45;;;7.80;99.90;;;;;;5030649;28;20021;-65
2021/09/21 06:47:48;;;;;;;3.15;2.22;;;7.80;99.90;;;;;;5030471;28;20469;-65
2021/09/21 06:50:14;;;;;;;11.88;2.50;;;7.80;99.90;;;;;;5029442;28;20021;-65
2021/09/21 06:52:41;;;;;;;11.02;2.35;;;7.90;99.90;;;;;;5030454;28;20025;-65
2021/09/21 06:55:08;;;;;;;10.23;2.67;;;8.10;99.90;;;;;;5030193;28;20048;-66
2021/09/21 06:57:34;;;;;;;5.40;2.22;;;8.30;99.90;;;;;;5030464;28;20030;-65
2021/09/21 07:00:00;;;;;;;6.63;2.20;;;8.40;99.90;;;;;;5030241;28;20366;-66
2021/09/21 07:02:26;;;;;;;5.05;2.15;;;8.50;99.90;;;;;;5030279;28;20081;-65
2021/09/21 07:04:51;;;;;;;6.57;2.00;;;8.50;99.90;;;;;;5030065;28;20063;-65
2021/09/21 07:07:18;;;;;;;9.77;2.80;;;8.50;99.90;;;;;;5030268;28;20021;-66
2021/09/21 07:09:43;;;;;;;11.43;2.30;;;8.40;99.90;;;;;;5030170;28;20029;-65
2021/09/21 07:12:09;;;;;;;4.00;1.90;;;8.40;99.90;;;;;;5030166;28;20021;-65
2021/09/21 07:14:35;;;;;;;10.77;2.15;;;8.40;99.90;;;;;;5029351;28;20490;-65
2021/09/21 07:17:01;;;;;;;3.40;2.20;;;8.50;99.90;;;;;;5030031;28;20022;-65
2021/09/21 07:19:27;;;;;;;3.65;2.00;;;8.60;99.90;;;;;;5030085;28;20112;-65
2021/09/21 07:21:52;;;;;;;5.25;1.90;;;8.60;99.90;;;;;;5030326;28;20036;-66
2021/09/21 07:24:18;;;;;;;6.68;2.00;;;8.60;99.90;;;;;;5029945;28;20029;-65
2021/09/21 07:26:50;;;;;;;10.65;2.08;;;8.60;99.90;;;;;;5029499;28;20021;-65
2021/09/21 07:29:16;;;;;;;3.58;1.92;;;8.60;99.90;;;;;;5030047;28;20074;-65
2021/09/21 07:31:42;;;;;;;6.28;2.28;;;8.60;99.90;;;;;;5030044;28;20026;-66
2021/09/21 07:34:08;;;;;;;2.95;1.95;;;8.50;99.90;;;;;;5029932;28;20098;-66
2021/09/21 07:36:34;;;;;;;5.50;2.28;;;8.50;99.90;;;;;;5030038;28;20026;-66
2021/09/21 07:39:00;;;;;;;4.38;2.47;;;8.60;99.90;;;;;;5029744;28;20041;-66
2021/09/21 07:41:25;;;;;;;2.28;1.70;;;8.60;99.90;;;;;;5029831;28;20032;-66
2021/09/21 07:43:51;;;;;;;2.75;1.80;;;8.60;99.90;;;;;;5029695;28;20045;-65
2021/09/21 07:46:17;;;;;;;6.65;2.05;;;8.60;99.90;;;;;;5029789;28;20029;-66
2021/09/21 07:48:43;;;;;;;2.05;1.40;;;8.60;99.90;;;;;;5029765;28;20024;-65
2021/09/21 07:51:09;;;;;;;3.80;1.60;;;8.70;99.90;;;;;;5029414;28;20112;-65
2021/09/21 07:53:36;;;;;;;2.40;1.75;;;8.80;99.90;;;;;;5029560;28;20384;-65
2021/09/21 07:56:02;;;;;;;2.25;1.48;;;8.80;99.90;;;;;;5028973;28;20489;-65
2021/09/21 07:58:27;;;;;;;7.47;2.30;;;8.90;99.90;;;;;;5029047;28;20072;-65
2021/09/21 08:00:55;;;;;;;5.03;1.60;;;9.00;99.90;;;;;;5029321;28;20049;-65
2021/09/21 08:03:22;;;;;;;3.63;2.00;;;9.00;99.90;;;;;;5028905;28;20061;-66
2021/09/21 08:05:48;;;;;;;10.10;1.60;;;9.00;99.90;;;;;;5029437;28;20476;-65
2021/09/21 08:08:16;;;;;;;1.40;1.30;;;9.00;99.90;;;;;;5029280;28;20080;-66
2021/09/21 08:10:45;;;;;;;7.05;1.80;;;9.00;99.90;;;;;;5029051;28;20083;-66
2021/09/21 08:13:11;;;;;;;1.90;1.52;;;9.00;99.90;;;;;;5029015;28;20033;-66
2021/09/21 08:15:37;;;;;;;2.80;1.65;;;9.00;99.90;;;;;;5029201;28;20022;-66
2021/09/21 08:18:06;;;;;;;4.60;1.63;;;9.10;99.90;;;;;;5028962;28;20388;-66
2021/09/21 08:20:32;;;;;;;2.70;1.33;;;9.10;99.90;;;;;;5029180;28;20025;-66
2021/09/21 08:22:58;;;;;;;3.25;1.60;;;9.20;99.90;;;;;;5028942;28;20052;-66
2021/09/21 08:25:24;;;;;;;2.33;1.50;;;9.20;99.90;;;;;;5028858;28;20018;-66
2021/09/21 08:27:49;;;;;;;3.53;1.40;;;9.30;99.90;;;;;;5028951;28;20532;-66
2021/09/21 08:30:17;;;;;;;5.40;1.40;;;9.30;99.90;;;;;;5028957;28;20024;-66
2021/09/21 08:32:43;;;;;;;4.30;1.20;;;9.40;99.90;;;;;;5029191;28;20057;-65
2021/09/21 08:35:09;;;;;;;3.55;1.40;;;9.40;99.90;;;;;;5028849;28;20129;-66
2021/09/21 08:37:35;;;;;;;17.88;2.88;;;9.40;99.90;;;;;;5027858;28;20026;-66
2021/09/21 08:40:00;;;;;;;3.92;1.58;;;9.30;99.90;;;;;;5029032;28;20028;-66
2021/09/21 08:42:26;;;;;;;1.77;1.40;;;9.30;99.90;;;;;;5029076;28;20391;-65
2021/09/21 08:44:53;;;;;;;2.17;1.70;;;9.30;99.90;;;;;;5028763;28;20060;-66
2021/09/21 08:47:20;;;;;;;2.70;1.33;;;9.30;99.90;;;;;;5028068;28;20028;-66
2021/09/21 08:49:46;;;;;;;2.22;1.40;;;9.20;99.90;;;;;;5029154;28;20034;-66
2021/09/21 08:52:12;;;;;;;2.53;1.58;;;9.30;99.90;;;;;;5028753;28;20021;-67
2021/09/21 08:54:38;;;;;;;3.95;1.20;;;9.30;99.90;;;;;;5028620;28;20120;-73
2021/09/21 08:57:05;;;;;;;3.50;1.45;;;9.20;99.90;;;;;;5027961;28;20117;-73
2021/09/21 08:59:33;;;;;;;1.42;1.20;;;9.20;99.90;;;;;;5027515;28;20026;-71
2021/09/21 09:02:10;;;;;;;2.13;1.30;;;9.30;99.90;;;;;;5028030;28;20025;-74
2021/09/21 09:04:38;;;;;;;1.20;1.10;;;9.30;99.90;;;;;;5027911;28;20116;-73
2021/09/21 09:07:05;;;;;;;1.52;1.40;;;9.30;99.90;;;;;;5025547;28;20020;-73
2021/09/21 09:09:35;;;;;;;1.23;1.13;;;9.30;99.90;;;;;;5027849;28;20021;-74
2021/09/21 09:12:04;;;;;;;4.00;1.53;;;9.40;99.90;;;;;;5028035;28;20028;-73
2021/09/21 09:14:33;;;;;;;2.13;1.40;;;9.40;99.90;;;;;;5028498;28;20037;-73
2021/09/21 09:17:12;;;;;;;13.20;1.90;;;9.40;99.90;;;;;;5028318;28;20267;-73
2021/09/21 09:19:42;;;;;;;2.08;1.60;;;9.40;99.90;;;;;;5008861;28;20041;-74
2021/09/21 09:22:11;;;;;;;3.65;1.30;;;9.50;99.90;;;;;;5020819;28;20037;-67
2021/09/21 09:24:49;;;;;;;2.05;1.48;;;9.50;99.90;;;;;;5028507;28;20038;-67
2021/09/21 09:27:16;;;;;;;1.63;1.35;;;9.50;99.90;;;;;;5028282;28;20022;-66
2021/09/21 09:29:56;;;;;;;3.40;1.40;;;9.50;99.40;;;;;;5028228;28;20026;-66
2021/09/21 09:32:22;;;;;;;1.20;1.10;;;9.40;99.50;;;;;;5028498;28;20030;-66
2021/09/21 09:34:48;;;;;;;2.25;1.48;;;9.50;99.50;;;;;;5028219;28;20036;-67
2021/09/21 09:37:15;;;;;;;5.60;1.40;;;9.50;99.80;;;;;;5030248;28;20028;-66
2021/09/21 09:39:41;;;;;;;3.50;1.35;;;9.50;99.20;;;;;;5031812;28;20026;-66
2021/09/21 09:42:08;;;;;;;5.00;1.40;;;9.40;99.30;;;;;;5030189;28;20025;-68
2021/09/21 09:44:36;;;;;;;1.75;1.30;;;9.50;99.90;;;;;;5029095;28;20038;-66
2021/09/21 09:47:04;;;;;;;2.85;1.30;;;9.50;99.90;;;;;;5027734;28;20013;-65
2021/09/21 09:49:32;;;;;;;1.48;1.38;;;9.40;99.90;;;;;;5030776;28;20033;-65
2021/09/21 09:52:07;;;;;;;11.70;2.90;;;9.50;99.90;;;;;;5031375;27;20423;-66
2021/09/21 09:54:34;;;;;;;1.52;1.35;;;9.40;99.90;;;;;;5043931;27;20052;-70
2021/09/21 09:57:01;;;;;;;3.55;1.23;;;9.40;99.90;;;;;;5041815;27;20503;-65
2021/09/21 09:59:28;;;;;;;1.40;1.20;;;9.50;99.90;;;;;;5104234;27;20503;-65
2021/09/21 10:01:54;;;;;;;1.75;1.25;;;9.40;99.90;;;;;;5080364;27;20540;-65
2021/09/21 10:04:20;;;;;;;1.48;1.38;;;9.30;99.90;;;;;;5065925;27;20073;-65
2021/09/21 10:06:46;;;;;;;1.73;1.25;;;9.30;99.90;;;;;;5030500;28;20074;-65
2021/09/21 10:09:12;;;;;;;3.30;1.30;;;9.20;99.90;;;;;;5050101;27;20031;-65
2021/09/21 10:11:39;;;;;;;3.08;1.50;;;9.20;99.90;;;;;;5097135;27;20054;-65
2021/09/21 10:14:06;;;;;;;3.60;1.27;;;9.30;99.90;;;;;;5029102;28;20030;-67
2021/09/21 10:16:32;;;;;;;2.10;1.40;;;9.30;99.90;;;;;;5030607;28;20022;-65
2021/09/21 10:19:00;;;;;;;2.17;1.38;;;9.40;99.90;;;;;;5030739;28;20044;-65
2021/09/21 10:21:31;;;;;;;3.20;1.10;;;9.40;99.90;;;;;;5030950;28;20053;-65
2021/09/21 10:24:02;;;;;;;8.07;1.45;;;9.40;99.90;;;;;;5029961;28;20036;-65
2021/09/21 10:26:29;;;;;;;1.30;1.20;;;9.40;99.90;;;;;;5030103;28;20039;-65
2021/09/21 10:28:57;;;;;;;11.52;1.63;;;9.40;99.90;;;;;;5123830;27;20097;-66
2021/09/21 10:31:24;;;;;;;3.58;1.60;;;9.40;99.90;;;;;;5134550;27;20027;-67
2021/09/21 10:33:50;;;;;;;3.70;1.52;;;9.40;99.90;;;;;;5134009;27;20050;-67
2021/09/21 10:36:29;;;;;;;2.55;1.30;;;9.40;98.80;;;;;;5134304;27;20106;-67
2021/09/21 10:39:06;;;;;;;6.57;1.65;;;9.40;99.10;;;;;;5040735;27;20055;-67
2021/09/21 10:41:32;;;;;;;2.13;1.50;;;9.50;99.90;;;;;;5029889;28;20030;-64
2021/09/21 10:44:17;;;;;;;1.40;1.30;;;9.60;99.90;;;;;;5028160;28;20140;-64
2021/09/21 10:46:59;;;;;;;6.15;1.30;;;9.50;99.90;;;;;;5028105;28;20039;-64
2021/09/21 10:49:29;;;;;;;5.50;1.60;;;9.50;99.90;;;;;;5030003;28;20024;-66
2021/09/21 10:52:01;;;;;;;1.83;1.40;;;9.50;99.90;;;;;;5029723;28;20384;-64
2021/09/21 10:54:38;;;;;;;5.15;1.60;;;9.50;99.90;;;;;;5099945;27;20031;-67
2021/09/21 10:57:07;;;;;;;2.22;1.55;;;9.50;99.90;;;;;;5029744;28;20072;-67
2021/09/21 10:59:33;;;;;;;2.57;1.13;;;9.50;99.90;;;;;;5030192;28;20033;-65
2021/09/21 11:02:03;;;;;;;3.22;1.55;;;9.50;99.90;;;;;;5028789;28;20074;-65
2021/09/21 11:04:43;;;;;;;4.28;1.33;;;9.50;99.90;;;;;;5041564;27;20037;-65
2021/09/21 11:07:13;;;;;;;3.97;1.95;;;9.50;99.90;;;;;;5029627;28;20069;-64
2021/09/21 11:09:40;;;;;;;2.90;1.45;;;9.60;99.90;;;;;;5029684;28;20055;-65
2021/09/21 11:12:08;;;;;;;2.28;1.50;;;9.60;99.90;;;;;;5029706;28;20017;-65
2021/09/21 11:14:42;;;;;;;3.35;1.80;;;9.60;99.90;;;;;;5014089;28;20033;-65
2021/09/21 11:17:09;;;;;;;2.13;1.35;;;9.60;99.90;;;;;;5038999;27;20018;-64
2021/09/21 11:19:36;;;;;;;5.15;1.50;;;9.70;99.90;;;;;;5102846;27;20139;-65
2021/09/21 11:22:05;;;;;;;1.45;1.33;;;9.70;99.90;;;;;;5079269;27;20439;-65
2021/09/21 11:24:32;;;;;;;5.75;1.73;;;9.70;99.90;;;;;;5132916;27;20035;-65
2021/09/21 11:27:04;;;;;;;5.75;1.52;;;9.70;99.90;;;;;;5046898;27;20022;-64
2021/09/21 11:29:31;;;;;;;2.35;1.50;;;9.60;99.90;;;;;;5106409;27;20018;-65
2021/09/21 11:31:58;;;;;;;2.03;1.40;;;9.60;99.90;;;;;;5076063;27;20030;-65
2021/09/21 11:34:29;;;;;;;3.08;1.60;;;9.60;99.90;;;;;;5067342;27;20018;-65
2021/09/21 11:37:01;;;;;;;5.05;1.42;;;9.60;99.90;;;;;;5028986;28;20063;-65
2021/09/21 11:39:29;;;;;;;3.50;1.50;;;9.60;99.90;;;;;;5029862;28;20100;-66
2021/09/21 11:41:55;;;;;;;5.07;1.77;;;9.60;99.90;;;;;;5029410;28;20033;-66
2021/09/21 11:44:21;;;;;;;1.90;1.50;;;9.50;99.90;;;;;;5027846;28;20034;-66
2021/09/21 11:46:47;;;;;;;2.28;1.40;;;9.50;99.90;;;;;;5029325;28;20033;-66
2021/09/21 11:49:12;;;;;;;9.45;2.50;;;9.50;99.90;;;;;;5029409;28;20057;-65
2021/09/21 11:51:39;;;;;;;1.58;1.40;;;9.40;99.90;;;;;;5029467;28;20105;-65
2021/09/21 11:54:05;;;;;;;4.43;1.70;;;9.40;99.90;;;;;;5027890;28;20441;-65
2021/09/21 11:56:38;;;;;;;5.03;1.58;;;9.40;99.90;;;;;;5025071;28;20065;-65
2021/09/21 11:59:04;;;;;;;2.60;1.80;;;9.40;99.90;;;;;;5026576;28;20033;-66
2021/09/21 12:01:30;;;;;;;2.47;1.33;;;9.40;99.90;;;;;;5028856;28;20062;-66
2021/09/21 12:03:56;;;;;;;3.45;1.83;;;9.40;99.90;;;;;;5029358;28;20041;-66
2021/09/21 12:06:36;;;;;;;9.45;1.52;;;9.40;99.90;;;;;;5029126;28;20358;-64
2021/09/21 12:09:04;;;;;;;2.45;1.27;;;9.50;99.90;;;;;;5036009;27;20477;-66
2021/09/21 12:11:34;;;;;;;5.55;1.70;;;9.50;99.90;;;;;;5036464;27;20618;-66
2021/09/21 12:14:00;;;;;;;2.75;1.38;;;9.50;99.90;;;;;;5028933;28;20025;-66
2021/09/21 12:16:28;;;;;;;1.85;1.50;;;9.50;99.90;;;;;;5028784;28;20048;-63
2021/09/21 12:18:55;;;;;;;2.22;1.50;;;9.50;99.90;;;;;;5028685;28;20704;-63
2021/09/21 12:21:22;;;;;;;3.65;1.50;;;9.50;99.90;;;;;;5028878;28;20033;-64
2021/09/21 12:23:48;;;;;;;9.38;1.83;;;9.40;99.90;;;;;;5028167;28;20105;-63
2021/09/21 12:26:16;;;;;;;5.18;1.45;;;9.50;99.90;;;;;;5041502;27;20025;-64
2021/09/21 12:28:48;;;;;;;5.40;1.58;;;9.50;99.90;;;;;;5041677;28;20099;-64
2021/09/21 12:31:42;;;;;;;2.47;1.48;;;9.50;99.90;;;;;;5039458;28;20365;-64
2021/09/21 12:34:11;;;;;;;4.40;1.52;;;9.60;99.90;;;;;;5025770;28;20120;-64
2021/09/21 12:36:52;;;;;;;2.30;1.40;;;9.50;99.90;;;;;;5028726;28;20030;-64
2021/09/21 12:39:20;;;;;;;3.95;1.67;;;9.50;99.90;;;;;;5028247;28;20029;-63
2021/09/21 12:41:51;;;;;;;6.70;1.85;;;9.50;99.90;;;;;;5028404;28;20026;-64
2021/09/21 12:44:23;;;;;;;15.40;3.00;;;9.50;99.90;;;;;;5028070;28;20507;-66
2021/09/21 12:46:52;;;;;;;8.25;1.65;;;9.50;99.90;;;;;;5028114;28;20009;-65
2021/09/21 12:49:18;;;;;;;13.73;1.90;;;9.50;99.90;;;;;;5028851;28;20033;-65
2021/09/21 12:51:51;;;;;;;1.50;1.40;;;9.50;99.90;;;;;;5027502;28;20126;-63
2021/09/21 12:54:19;;;;;;;30.95;2.08;;;9.50;99.90;;;;;;5025900;28;20039;-65
2021/09/21 12:56:48;;;;;;;5.47;2.33;;;9.50;99.90;;;;;;5028106;28;20393;-64
2021/09/21 12:59:18;;;;;;;3.92;1.45;;;9.50;99.90;;;;;;5028356;28;20389;-64
2021/09/21 13:01:46;;;;;;;4.22;1.27;;;9.40;99.90;;;;;;5025651;28;20024;-64
2021/09/21 13:04:13;;;;;;;2.17;1.10;;;9.40;99.90;;;;;;5027935;28;20080;-64
2021/09/21 13:06:39;;;;;;;2.10;1.40;;;9.40;99.90;;;;;;5028064;28;20112;-64
2021/09/21 13:09:06;;;;;;;1.80;1.50;;;9.30;99.90;;;;;;5027714;28;20108;-64
2021/09/21 13:11:32;;;;;;;4.70;1.70;;;9.30;99.90;;;;;;5029294;28;20380;-64
2021/09/21 13:13:59;;;;;;;4.10;1.50;;;9.30;99.90;;;;;;5031435;28;20504;-64
2021/09/21 13:16:25;;;;;;;2.97;1.70;;;9.40;99.90;;;;;;5028846;28;20025;-64
2021/09/21 13:18:52;;;;;;;1.88;1.30;;;9.40;99.90;;;;;;5031844;28;20029;-64
2021/09/21 13:21:19;;;;;;;2.92;1.70;;;9.50;99.90;;;;;;5031474;28;20465;-64
2021/09/21 13:23:45;;;;;;;1.63;1.30;;;9.40;99.90;;;;;;5028880;28;20113;-65
2021/09/21 13:26:11;;;;;;;4.15;1.42;;;9.40;99.90;;;;;;5031815;28;20492;-65
2021/09/21 13:28:37;;;;;;;6.95;1.55;;;9.40;99.90;;;;;;5032003;28;20049;-65
2021/09/21 13:31:05;;;;;;;4.85;1.30;;;9.40;99.90;;;;;;5031919;28;20174;-64
2021/09/21 13:33:31;;;;;;;3.67;1.08;;;9.40;99.90;;;;;;5029295;28;20053;-65
2021/09/21 13:35:56;;;;;;;2.47;1.52;;;9.40;99.90;;;;;;5026726;28;20044;-65